Time;durP1;ratioP1;P1;durP2;ratioP2;P2;SDS_P1;SDS_P2;PMS_P1;PMS_P2;Temp;Humidity;BMP_temperature;BMP_pressure;BME280_temperature;BME280_humidity;BME280_pressure;Samples;Min_cycle;Max_cycle;Signal;HPM_P1;HPM_P2
2021/09/17 00:01:36;;;;;;;5.28;2.00;;;;;;;;;;4156794;28;20053;-51
2021/09/17 00:03:38;;;;;;;4.00;1.80;;;;;;;;;;4158263;28;20041;-49
2021/09/17 00:05:40;;;;;;;5.05;2.03;;;;;;;;;;4169550;28;20097;-51
2021/09/17 00:07:42;;;;;;;4.10;1.80;;;;;;;;;;4172619;28;20044;-51
2021/09/17 00:09:44;;;;;;;4.22;1.80;;;;;;;;;;4168707;28;20235;-53
2021/09/17 00:11:46;;;;;;;5.03;1.83;;;;;;;;;;4170208;28;20034;-53
2021/09/17 00:13:48;;;;;;;4.70;2.08;;;;;;;;;;4158358;28;20723;-52
2021/09/17 00:15:51;;;;;;;2.95;1.60;;;;;;;;;;4156302;28;20072;-49
2021/09/17 00:17:53;;;;;;;2.88;1.83;;;;;;;;;;4154660;28;20059;-50
2021/09/17 00:19:55;;;;;;;3.10;1.70;;;;;;;;;;4163325;28;20052;-52
2021/09/17 00:21:57;;;;;;;4.78;2.25;;;;;;;;;;4158013;28;20118;-54
2021/09/17 00:23:59;;;;;;;3.67;1.88;;;;;;;;;;4161254;28;20045;-53
2021/09/17 00:26:01;;;;;;;5.53;2.33;;;;;;;;;;4160950;28;20056;-52
2021/09/17 00:28:03;;;;;;;4.05;2.10;;;;;;;;;;4160809;28;20148;-53
2021/09/17 00:30:05;;;;;;;3.30;1.80;;;;;;;;;;4149642;28;20073;-49
2021/09/17 00:32:08;;;;;;;3.65;1.60;;;19.80;53.80;;;;;;4154806;28;20080;-53
2021/09/17 00:34:10;;;;;;;4.77;2.10;;;19.60;55.60;;;;;;4162040;28;20400;-53
2021/09/17 00:36:12;;;;;;;3.00;1.83;;;19.60;55.60;;;;;;4159968;28;20127;-54
2021/09/17 00:38:15;;;;;;;2.45;1.70;;;19.60;55.60;;;;;;4159173;28;20056;-56
2021/09/17 00:40:17;;;;;;;2.53;1.63;;;19.50;55.50;;;;;;4159198;28;20129;-56
2021/09/17 00:42:19;;;;;;;2.77;1.80;;;19.60;55.60;;;;;;4160232;28;20080;-54
2021/09/17 00:44:27;;;;;;;3.40;1.50;;;19.60;55.60;;;;;;4156681;28;20312;-54
2021/09/17 00:46:29;;;;;;;2.10;1.50;;;19.60;55.60;;;;;;4159880;28;20049;-57
2021/09/17 00:48:31;;;;;;;3.63;1.83;;;19.60;55.50;;;;;;4155758;28;20041;-49
2021/09/17 00:50:34;;;;;;;3.70;1.80;;;19.60;55.60;;;;;;4158904;28;20041;-51
2021/09/17 00:52:36;;;;;;;2.67;1.58;;;19.50;55.60;;;;;;4163740;28;20049;-55
2021/09/17 00:54:39;;;;;;;3.28;1.70;;;19.60;55.70;;;;;;4157825;28;20865;-50
2021/09/17 00:56:42;;;;;;;3.30;1.60;;;19.60;55.70;;;;;;4162437;28;20055;-55
2021/09/17 00:58:44;;;;;;;3.05;1.80;;;19.60;55.70;;;;;;4158563;28;21006;-57
2021/09/17 01:00:46;;;;;;;1.40;1.30;;;19.60;55.60;;;;;;4159644;28;20041;-57
2021/09/17 01:02:49;;;;;;;2.22;1.30;;;19.60;55.60;;;;;;4154521;28;20087;-54
2021/09/17 01:04:51;;;;;;;2.47;1.48;;;19.60;55.60;;;;;;4160702;28;20844;-57
2021/09/17 01:06:55;;;;;;;5.60;1.58;;;19.60;55.60;;;;;;4153346;28;20057;-53
2021/09/17 01:08:59;;;;;;;1.85;1.30;;;19.60;55.60;;;;;;4156624;28;20079;-54
2021/09/17 01:11:01;;;;;;;3.10;1.30;;;19.60;55.50;;;;;;4157629;28;20045;-53
2021/09/17 01:13:04;;;;;;;3.22;1.60;;;19.60;55.50;;;;;;4159166;28;20037;-53
2021/09/17 01:15:08;;;;;;;2.23;1.50;;;19.60;55.50;;;;;;4154505;28;20040;-53
2021/09/17 01:17:10;;;;;;;2.15;1.73;;;19.60;55.50;;;;;;4154469;28;20521;-56
2021/09/17 01:19:12;;;;;;;2.15;1.40;;;19.70;55.50;;;;;;4157247;28;20567;-57
2021/09/17 01:21:15;;;;;;;2.17;1.17;;;19.60;55.50;;;;;;4154866;28;20048;-53
2021/09/17 01:23:17;;;;;;;2.13;1.42;;;19.60;55.40;;;;;;4157708;28;20127;-55
2021/09/17 01:25:21;;;;;;;2.17;1.40;;;19.70;55.40;;;;;;4159864;28;20484;-54
2021/09/17 01:27:24;;;;;;;2.42;1.50;;;19.70;55.40;;;;;;4157017;28;20036;-57
2021/09/17 01:29:26;;;;;;;1.77;1.52;;;19.70;56.10;;;;;;4160940;28;20123;-50
2021/09/17 01:31:28;;;;;;;3.50;1.33;;;19.70;55.50;;;;;;4156985;28;20044;-54
2021/09/17 01:33:32;;;;;;;1.20;0.93;;;19.70;55.40;;;;;;4156594;28;20099;-49
2021/09/17 01:35:33;;;;;;;;;;;19.70;55.30;;;;;;4154258;28;20095;-53
2021/09/17 01:37:36;;;;;;;1.77;1.30;;;19.70;55.30;;;;;;4157007;28;19934;-56
2021/09/17 01:39:38;;;;;;;2.10;1.30;;;19.70;55.20;;;;;;4165490;28;20045;-55
2021/09/17 01:41:43;;;;;;;1.98;1.30;;;19.70;55.30;;;;;;4160037;28;20045;-52
2021/09/17 01:43:45;;;;;;;2.17;1.40;;;19.80;55.30;;;;;;4160082;28;20057;-51
2021/09/17 01:45:47;;;;;;;2.60;1.33;;;19.80;55.40;;;;;;4154690;28;20130;-52
2021/09/17 01:47:49;;;;;;;2.28;1.20;;;19.80;55.40;;;;;;4156594;28;20084;-56
2021/09/17 01:49:52;;;;;;;2.00;1.40;;;19.80;55.30;;;;;;4158737;28;20096;-54
2021/09/17 01:51:54;;;;;;;1.70;1.30;;;19.80;54.90;;;;;;4164338;28;20049;-55
2021/09/17 01:53:56;;;;;;;1.80;1.15;;;19.80;54.90;;;;;;4166310;28;20063;-56
2021/09/17 01:55:58;;;;;;;1.92;1.10;;;19.80;54.70;;;;;;4165924;28;20060;-56
2021/09/17 01:58:01;;;;;;;2.45;1.55;;;19.80;54.60;;;;;;4161746;28;20071;-55
2021/09/17 02:02:12;;;;;;;2.38;1.50;;;19.80;53.80;;;;;;4178001;27;20468;-56
2021/09/17 02:04:16;;;;;;;1.10;1.00;;;19.80;54.10;;;;;;4166620;28;20049;-56
2021/09/17 02:06:20;;;;;;;1.50;1.05;;;19.80;54.00;;;;;;4154532;28;20080;-55
2021/09/17 02:08:22;;;;;;;2.05;1.23;;;19.80;53.90;;;;;;4163134;28;20045;-57
2021/09/17 02:10:25;;;;;;;1.70;1.30;;;19.80;53.90;;;;;;4161482;28;20045;-53
2021/09/17 02:12:27;;;;;;;2.85;1.40;;;19.80;53.80;;;;;;4164544;28;20356;-53
2021/09/17 02:14:29;;;;;;;1.35;1.10;;;19.80;53.70;;;;;;4162047;28;20060;-54
2021/09/17 02:16:31;;;;;;;1.60;1.17;;;19.80;53.60;;;;;;4162360;28;20914;-51
2021/09/17 02:18:34;;;;;;;1.63;1.10;;;19.80;53.80;;;;;;4162957;28;20512;-57
2021/09/17 02:20:36;;;;;;;1.20;1.00;;;19.70;53.60;;;;;;4163230;28;20465;-52
2021/09/17 02:22:38;;;;;;;1.48;1.02;;;19.70;53.40;;;;;;4161696;28;20731;-56
2021/09/17 02:24:41;;;;;;;2.22;1.45;;;19.80;53.60;;;;;;4156899;28;20037;-57
2021/09/17 02:26:43;;;;;;;1.38;1.15;;;19.70;53.50;;;;;;4155130;28;20045;-54
2021/09/17 02:28:45;;;;;;;1.90;1.58;;;19.80;53.40;;;;;;4163143;28;20052;-54
2021/09/17 02:30:48;;;;;;;2.67;1.65;;;19.70;54.00;;;;;;4164672;28;20209;-52
2021/09/17 02:32:51;;;;;;;3.20;1.40;;;19.80;54.20;;;;;;4161519;28;20095;-56
2021/09/17 02:34:53;;;;;;;1.75;1.20;;;19.80;54.50;;;;;;4165436;28;20050;-56
2021/09/17 02:36:55;;;;;;;1.98;1.30;;;19.80;54.50;;;;;;4158810;28;20057;-53
2021/09/17 02:38:57;;;;;;;1.90;0.95;;;19.80;54.60;;;;;;4168156;28;20049;-52
2021/09/17 02:40:59;;;;;;;2.58;1.13;;;19.80;54.80;;;;;;4159267;28;20954;-52
2021/09/17 02:43:02;;;;;;;1.45;1.13;;;19.80;54.80;;;;;;4163010;28;20057;-54
2021/09/17 02:45:07;;;;;;;1.60;1.20;;;19.80;54.90;;;;;;4159803;28;20052;-55
2021/09/17 02:47:09;;;;;;;1.42;1.13;;;19.90;55.10;;;;;;4165602;28;20045;-55
2021/09/17 02:49:11;;;;;;;1.67;1.00;;;19.90;55.20;;;;;;4161824;28;20049;-55
2021/09/17 02:51:13;;;;;;;2.35;1.42;;;19.90;55.20;;;;;;4162168;28;20072;-57
2021/09/17 02:53:15;;;;;;;2.05;1.10;;;19.90;55.30;;;;;;4159613;28;20067;-54
2021/09/17 02:55:17;;;;;;;1.48;1.23;;;20.00;55.40;;;;;;4157430;28;20049;-49
2021/09/17 02:57:20;;;;;;;1.15;1.00;;;19.90;55.40;;;;;;4163824;28;20052;-54
2021/09/17 02:59:22;;;;;;;1.70;1.02;;;19.90;55.40;;;;;;4161990;28;20593;-54
2021/09/17 03:01:25;;;;;;;3.05;1.23;;;20.00;55.50;;;;;;4160440;28;20077;-54
2021/09/17 03:03:27;;;;;;;2.27;1.50;;;20.00;55.50;;;;;;4150065;28;20045;-52
2021/09/17 03:05:29;;;;;;;2.45;1.30;;;20.00;55.50;;;;;;4160733;28;20318;-52
2021/09/17 03:07:31;;;;;;;2.15;1.38;;;20.00;55.50;;;;;;4162497;28;20191;-53
2021/09/17 03:09:33;;;;;;;2.97;1.40;;;20.00;55.50;;;;;;4158591;28;20048;-53
2021/09/17 03:11:36;;;;;;;1.42;1.00;;;20.10;55.60;;;;;;4157894;28;20144;-50
2021/09/17 03:13:38;;;;;;;2.17;1.27;;;20.10;55.60;;;;;;4148642;28;20041;-51
2021/09/17 03:15:40;;;;;;;1.63;1.20;;;20.10;55.60;;;;;;4148821;28;20053;-52
2021/09/17 03:17:42;;;;;;;2.28;1.27;;;20.10;55.60;;;;;;4149600;28;20077;-46
2021/09/17 03:19:44;;;;;;;1.65;1.20;;;20.20;55.70;;;;;;4148885;28;20050;-49
2021/09/17 03:21:47;;;;;;;1.33;1.05;;;20.20;55.70;;;;;;4144603;28;20050;-50
2021/09/17 03:23:49;;;;;;;1.38;0.90;;;20.20;55.70;;;;;;4148347;28;21080;-54
2021/09/17 03:25:51;;;;;;;2.13;1.17;;;20.30;55.80;;;;;;4145592;28;20137;-52
2021/09/17 03:27:53;;;;;;;2.40;1.45;;;20.30;55.80;;;;;;4148160;28;20132;-52
2021/09/17 03:29:55;;;;;;;1.60;1.10;;;20.30;55.80;;;;;;4144229;28;20058;-48
2021/09/17 03:31:57;;;;;;;2.17;1.13;;;20.40;55.80;;;;;;4150845;28;20072;-52
2021/09/17 03:34:00;;;;;;;2.10;1.10;;;20.40;55.70;;;;;;4145011;28;20053;-51
2021/09/17 03:36:02;;;;;;;1.55;1.10;;;20.50;55.80;;;;;;4150011;28;20741;-47
2021/09/17 03:38:05;;;;;;;1.30;1.10;;;20.50;55.70;;;;;;4147316;28;20140;-51
2021/09/17 03:40:08;;;;;;;2.03;1.25;;;20.50;55.70;;;;;;4150654;28;20094;-50
2021/09/17 03:42:10;;;;;;;2.55;1.10;;;20.60;56.30;;;;;;4144936;28;20045;-50
2021/09/17 03:44:13;;;;;;;1.20;1.02;;;20.60;55.60;;;;;;4145791;28;20042;-49
2021/09/17 03:46:15;;;;;;;;;;;20.70;55.60;;;;;;4147717;28;20053;-50
2021/09/17 03:48:17;;;;;;;1.58;1.13;;;20.80;55.50;;;;;;4145340;28;20331;-53
2021/09/17 03:50:20;;;;;;;1.27;1.08;;;20.80;55.40;;;;;;4146070;28;20164;-51
2021/09/17 03:52:22;;;;;;;1.30;1.17;;;20.90;55.50;;;;;;4143152;28;20144;-52
2021/09/17 03:54:26;;;;;;;1.20;0.90;;;20.90;55.40;;;;;;4149511;28;20138;-49
2021/09/17 03:56:29;;;;;;;1.60;1.10;;;21.00;55.30;;;;;;4150845;28;20741;-51
2021/09/17 03:58:31;;;;;;;1.58;0.90;;;21.00;55.20;;;;;;4144173;28;20049;-50
2021/09/17 04:00:33;;;;;;;1.25;1.15;;;21.10;54.70;;;;;;4149572;28;20099;-48
2021/09/17 04:02:35;;;;;;;2.60;1.38;;;21.20;55.10;;;;;;4149152;28;20096;-49
2021/09/17 04:04:40;;;;;;;2.53;1.10;;;21.20;55.00;;;;;;4148489;28;20045;-56
2021/09/17 04:06:43;;;;;;;1.38;0.82;;;21.30;55.20;;;;;;4147492;28;20107;-56
2021/09/17 04:08:45;;;;;;;1.77;1.10;;;21.30;54.80;;;;;;4149524;28;20049;-54
2021/09/17 04:10:47;;;;;;;1.73;1.00;;;21.40;54.80;;;;;;4146865;28;20052;-49
2021/09/17 04:12:50;;;;;;;2.22;1.10;;;21.40;54.60;;;;;;4145338;28;20045;-54
2021/09/17 04:14:52;;;;;;;2.30;1.07;;;21.50;54.70;;;;;;4147315;28;20046;-50
2021/09/17 04:16:54;;;;;;;1.73;1.10;;;21.60;54.60;;;;;;4153717;28;20100;-50
2021/09/17 04:18:57;;;;;;;2.95;1.23;;;21.60;54.60;;;;;;4148192;28;20569;-53
2021/09/17 04:20:59;;;;;;;1.20;1.10;;;21.70;54.30;;;;;;4145819;28;20093;-54
2021/09/17 04:23:01;;;;;;;1.55;1.10;;;21.80;54.40;;;;;;4147171;28;20041;-56
2021/09/17 04:25:05;;;;;;;1.52;0.98;;;21.80;54.30;;;;;;4148112;28;20048;-51
2021/09/17 04:27:07;;;;;;;1.48;1.17;;;21.90;54.30;;;;;;4146220;28;20064;-50
2021/09/17 04:29:09;;;;;;;2.13;1.40;;;22.00;54.30;;;;;;4142986;28;20084;-54
2021/09/17 04:31:11;;;;;;;2.15;1.10;;;22.00;54.10;;;;;;4151342;28;20071;-51
2021/09/17 04:33:16;;;;;;;2.05;1.27;;;22.10;54.10;;;;;;4144582;28;20063;-50
2021/09/17 04:35:18;;;;;;;1.95;1.00;;;22.20;54.00;;;;;;4148484;28;20037;-53
2021/09/17 04:37:21;;;;;;;2.05;1.05;;;22.30;53.90;;;;;;4146193;28;20041;-53
2021/09/17 04:39:23;;;;;;;2.00;1.33;;;22.30;53.70;;;;;;4144858;28;20061;-51
2021/09/17 04:41:25;;;;;;;1.33;0.98;;;22.40;53.60;;;;;;4148572;28;20049;-51
2021/09/17 04:43:28;;;;;;;1.45;1.13;;;22.50;53.50;;;;;;4143517;28;20147;-50
2021/09/17 04:45:30;;;;;;;1.90;1.17;;;22.60;53.40;;;;;;4147439;28;20056;-49
2021/09/17 04:47:33;;;;;;;2.30;1.20;;;22.60;53.20;;;;;;4144910;28;20075;-54
2021/09/17 04:49:35;;;;;;;2.17;1.38;;;22.70;53.10;;;;;;4131422;28;20279;-53
2021/09/17 04:51:37;;;;;;;2.35;1.35;;;22.80;52.90;;;;;;4148786;28;20061;-52
2021/09/17 04:53:39;;;;;;;2.13;1.27;;;22.90;52.80;;;;;;4147991;28;20054;-52
2021/09/17 04:55:42;;;;;;;2.55;0.90;;;23.00;52.70;;;;;;4140153;28;20069;-48
2021/09/17 04:57:44;;;;;;;1.55;0.88;;;23.00;52.50;;;;;;4145830;28;20069;-52
2021/09/17 04:59:46;;;;;;;1.20;0.85;;;23.10;52.40;;;;;;4150691;28;20128;-51
2021/09/17 05:02:14;;;;;;;2.40;1.00;;;23.20;51.70;;;;;;4191579;27;20435;-51
2021/09/17 05:04:16;;;;;;;1.55;1.13;;;23.30;52.20;;;;;;4196575;28;20043;-51
2021/09/17 05:06:18;;;;;;;1.92;1.15;;;23.30;52.10;;;;;;4171985;28;20120;-51
2021/09/17 05:08:21;;;;;;;1.87;1.10;;;23.40;52.10;;;;;;4183762;28;20097;-50
2021/09/17 05:10:23;;;;;;;1.42;1.10;;;23.40;52.10;;;;;;4171428;28;20064;-52
2021/09/17 05:12:25;;;;;;;2.30;1.17;;;23.40;52.80;;;;;;4173754;28;20071;-54
2021/09/17 05:14:27;;;;;;;2.63;1.23;;;23.40;52.30;;;;;;4169470;28;20090;-48
2021/09/17 05:16:32;;;;;;;2.92;1.42;;;23.40;52.40;;;;;;4170816;28;20067;-53
2021/09/17 05:18:34;;;;;;;1.33;1.00;;;23.40;52.50;;;;;;4170591;28;20044;-51
2021/09/17 05:20:36;;;;;;;1.42;1.10;;;23.40;52.50;;;;;;4176742;28;20091;-52
2021/09/17 05:22:38;;;;;;;2.50;1.45;;;23.50;52.60;;;;;;4172337;28;20152;-56
2021/09/17 05:24:40;;;;;;;2.17;1.35;;;23.50;52.60;;;;;;4177789;28;20464;-53
2021/09/17 05:26:42;;;;;;;2.00;1.23;;;23.50;52.60;;;;;;4176188;28;20053;-53
2021/09/17 05:28:44;;;;;;;3.17;1.50;;;23.50;52.60;;;;;;4171030;28;20049;-53
2021/09/17 05:30:47;;;;;;;2.55;1.27;;;23.60;52.60;;;;;;4173650;28;20045;-53
2021/09/17 05:32:49;;;;;;;1.52;1.15;;;23.60;52.50;;;;;;4173870;28;20052;-54
2021/09/17 05:34:51;;;;;;;2.85;1.52;;;23.60;52.50;;;;;;4174626;28;20041;-53
2021/09/17 05:36:53;;;;;;;3.53;1.42;;;23.60;52.50;;;;;;4171805;28;20186;-54
2021/09/17 05:38:55;;;;;;;2.92;1.33;;;23.70;52.40;;;;;;4172392;28;20235;-55
2021/09/17 05:40:58;;;;;;;4.37;1.47;;;23.80;52.30;;;;;;4167680;28;20864;-54
2021/09/17 05:43:00;;;;;;;3.53;1.27;;;23.80;52.30;;;;;;4168599;28;20045;-53
2021/09/17 05:45:03;;;;;;;2.42;1.30;;;23.80;52.30;;;;;;4173599;28;20052;-55
2021/09/17 05:47:05;;;;;;;2.08;1.25;;;23.90;53.00;;;;;;4173031;28;20412;-54
2021/09/17 05:49:08;;;;;;;1.50;1.00;;;23.90;52.30;;;;;;4171339;28;20123;-51
2021/09/17 05:51:10;;;;;;;1.92;1.08;;;23.90;52.50;;;;;;4177831;28;20049;-54
2021/09/17 05:53:15;;;;;;;3.17;1.40;;;24.00;52.60;;;;;;4171405;28;20107;-53
2021/09/17 05:55:17;;;;;;;1.73;1.10;;;24.00;52.50;;;;;;4175930;28;20152;-50
2021/09/17 05:57:19;;;;;;;2.33;1.27;;;24.00;52.30;;;;;;4171944;28;20057;-52
2021/09/17 05:59:21;;;;;;;3.97;1.48;;;24.00;52.30;;;;;;4168641;28;20057;-53
2021/09/17 06:01:23;;;;;;;1.75;1.25;;;24.00;52.30;;;;;;4172104;28;20052;-56
2021/09/17 06:03:25;;;;;;;1.42;1.05;;;24.10;52.30;;;;;;4175913;28;20139;-51
2021/09/17 06:05:28;;;;;;;2.03;1.20;;;24.10;52.00;;;;;;4174949;28;20178;-56
2021/09/17 06:07:30;;;;;;;2.33;1.48;;;24.10;52.00;;;;;;4173317;28;20289;-54
2021/09/17 06:09:34;;;;;;;1.75;1.27;;;24.20;52.10;;;;;;4173930;28;20068;-58
2021/09/17 06:11:36;;;;;;;1.83;1.08;;;24.20;52.00;;;;;;4171714;28;20499;-55
2021/09/17 06:13:38;;;;;;;2.70;1.43;;;24.20;52.00;;;;;;4155696;28;20104;-55
2021/09/17 06:15:41;;;;;;;1.88;1.10;;;24.20;52.00;;;;;;4158021;28;20083;-56
2021/09/17 06:17:43;;;;;;;1.40;1.00;;;24.30;51.90;;;;;;4164035;28;20135;-55
2021/09/17 06:19:46;;;;;;;2.05;1.20;;;24.30;51.90;;;;;;4159777;28;20106;-53
2021/09/17 06:21:48;;;;;;;2.38;1.30;;;24.30;51.90;;;;;;4164344;28;20056;-55
2021/09/17 06:23:50;;;;;;;2.13;1.40;;;24.40;51.90;;;;;;4159770;28;20053;-54
2021/09/17 06:25:53;;;;;;;1.67;1.20;;;24.40;51.80;;;;;;4166650;28;20088;-54
2021/09/17 06:27:55;;;;;;;2.25;1.17;;;24.40;51.70;;;;;;4159102;28;20184;-56
2021/09/17 06:29:57;;;;;;;1.92;1.30;;;24.40;51.80;;;;;;4157913;28;20052;-55
2021/09/17 06:31:59;;;;;;;1.98;1.13;;;24.40;51.90;;;;;;4157151;28;20099;-54
2021/09/17 06:34:02;;;;;;;1.33;1.00;;;24.50;51.90;;;;;;4164232;28;20060;-53
2021/09/17 06:36:04;;;;;;;3.83;1.55;;;24.50;51.70;;;;;;4159926;28;20068;-53
2021/09/17 06:38:06;;;;;;;2.33;1.43;;;24.50;51.70;;;;;;4161576;28;20044;-53
2021/09/17 06:40:09;;;;;;;2.78;1.33;;;24.60;51.90;;;;;;4163349;28;20049;-52
2021/09/17 06:42:11;;;;;;;2.25;1.20;;;24.60;51.80;;;;;;4167004;28;20190;-53
2021/09/17 06:44:13;;;;;;;2.15;1.48;;;24.60;51.70;;;;;;4166603;28;20108;-53
2021/09/17 06:46:15;;;;;;;3.70;1.25;;;24.60;51.70;;;;;;4163675;28;20107;-51
2021/09/17 06:48:18;;;;;;;1.67;1.27;;;24.60;51.70;;;;;;4169144;28;20041;-54
2021/09/17 06:50:23;;;;;;;3.08;1.60;;;24.60;51.90;;;;;;4165660;28;20079;-49
2021/09/17 06:52:25;;;;;;;2.45;1.20;;;24.60;51.60;;;;;;4163425;28;20084;-57
2021/09/17 06:54:27;;;;;;;2.28;1.30;;;24.70;51.70;;;;;;4159895;28;20254;-55
2021/09/17 06:56:29;;;;;;;2.08;1.42;;;24.70;51.50;;;;;;4165214;28;20191;-53
2021/09/17 06:58:34;;;;;;;1.98;1.20;;;24.70;51.50;;;;;;4163049;28;20068;-55
2021/09/17 07:00:38;;;;;;;2.13;1.42;;;24.70;51.50;;;;;;4156067;28;20060;-53
2021/09/17 07:02:41;;;;;;;2.33;1.35;;;24.70;51.30;;;;;;4158428;28;20061;-56
2021/09/17 07:04:44;;;;;;;2.38;1.10;;;24.70;51.30;;;;;;4158115;28;20049;-50
2021/09/17 07:06:46;;;;;;;2.03;1.40;;;24.70;51.40;;;;;;4155383;28;20564;-53
2021/09/17 07:08:49;;;;;;;3.33;1.55;;;24.70;51.40;;;;;;4160177;28;20048;-55
2021/09/17 07:10:51;;;;;;;1.40;1.25;;;24.70;51.40;;;;;;4155627;28;20063;-53
2021/09/17 07:12:53;;;;;;;2.53;1.07;;;24.70;51.40;;;;;;4157151;28;20049;-53
2021/09/17 07:14:55;;;;;;;3.20;1.58;;;24.70;51.50;;;;;;4155383;28;20041;-53
2021/09/17 07:16:57;;;;;;;1.48;1.17;;;24.70;51.30;;;;;;4157112;28;20091;-51
2021/09/17 07:18:59;;;;;;;3.22;1.30;;;24.70;52.00;;;;;;4152901;28;20075;-54
2021/09/17 07:21:02;;;;;;;3.10;1.40;;;24.70;51.50;;;;;;4156505;28;20099;-54
2021/09/17 07:23:04;;;;;;;2.90;1.88;;;24.60;51.50;;;;;;4155673;28;20136;-52
2021/09/17 07:25:08;;;;;;;2.03;1.30;;;24.60;51.60;;;;;;4161459;28;20045;-51
2021/09/17 07:27:10;;;;;;;1.85;1.50;;;24.60;51.50;;;;;;4154921;28;20578;-56
2021/09/17 07:29:13;;;;;;;3.03;1.67;;;24.60;51.70;;;;;;4160612;28;20510;-55
2021/09/17 07:31:15;;;;;;;2.33;1.40;;;24.60;51.70;;;;;;4157859;28;20118;-54
2021/09/17 07:33:17;;;;;;;2.15;1.27;;;24.60;51.80;;;;;;4158725;28;20080;-54
2021/09/17 07:35:20;;;;;;;3.08;1.52;;;24.60;51.90;;;;;;4159258;28;20040;-52
2021/09/17 07:37:23;;;;;;;3.17;1.88;;;24.50;51.50;;;;;;4151311;28;20798;-51
2021/09/17 07:39:25;;;;;;;1.92;1.10;;;24.50;51.40;;;;;;4158951;28;20049;-52
2021/09/17 07:41:27;;;;;;;1.92;1.30;;;24.50;51.30;;;;;;4143572;28;20061;-55
2021/09/17 07:43:29;;;;;;;1.65;1.35;;;24.50;51.30;;;;;;4158381;28;20045;-52
2021/09/17 07:45:32;;;;;;;3.40;1.35;;;24.50;51.20;;;;;;4152476;28;20057;-53
2021/09/17 07:47:34;;;;;;;1.95;1.40;;;24.40;51.00;;;;;;4153659;28;20041;-51
2021/09/17 07:49:37;;;;;;;;;;;24.40;51.20;;;;;;4150899;28;21696;-53
2021/09/17 07:51:39;;;;;;;2.53;1.95;;;24.40;51.10;;;;;;4159225;28;20016;-53
2021/09/17 07:53:41;;;;;;;3.58;2.10;;;24.40;51.50;;;;;;4152871;28;20151;-55
2021/09/17 07:55:43;;;;;;;2.58;1.60;;;24.30;51.50;;;;;;4154745;28;20146;-53
2021/09/17 07:57:46;;;;;;;3.63;2.05;;;24.30;51.70;;;;;;4156670;28;20056;-55
2021/09/17 07:59:48;;;;;;;2.20;1.60;;;24.30;51.80;;;;;;4157108;28;20091;-51
2021/09/17 08:02:22;;;;;;;3.53;1.95;;;24.30;51.40;;;;;;4222098;27;20329;-51
2021/09/17 08:04:25;;;;;;;2.03;1.67;;;24.20;51.90;;;;;;4205964;28;20107;-52
2021/09/17 08:06:27;;;;;;;2.70;1.70;;;24.20;52.00;;;;;;4203566;28;20388;-51
2021/09/17 08:08:29;;;;;;;2.17;1.75;;;24.20;52.10;;;;;;4208216;28;20083;-50
2021/09/17 08:10:31;;;;;;;2.37;1.80;;;24.20;52.20;;;;;;4201839;28;20078;-53
2021/09/17 08:12:34;;;;;;;3.13;1.90;;;24.20;52.20;;;;;;4191011;28;20499;-51
2021/09/17 08:14:36;;;;;;;2.60;1.70;;;24.20;52.20;;;;;;4189141;28;20052;-53
2021/09/17 08:16:38;;;;;;;3.53;1.77;;;24.20;52.30;;;;;;4187018;28;20051;-52
2021/09/17 08:18:40;;;;;;;3.00;1.60;;;24.20;52.30;;;;;;4190862;28;20052;-51
2021/09/17 08:20:48;;;;;;;2.20;1.63;;;24.20;52.20;;;;;;4189185;28;20143;-55
2021/09/17 08:22:51;;;;;;;3.45;1.83;;;24.20;52.10;;;;;;4190082;28;20041;-53
2021/09/17 08:24:53;;;;;;;2.53;1.90;;;24.10;52.10;;;;;;4186550;28;20059;-48
2021/09/17 08:26:57;;;;;;;2.80;1.80;;;24.10;52.10;;;;;;4180656;28;20044;-53
2021/09/17 08:28:59;;;;;;;2.00;1.50;;;24.10;52.10;;;;;;4190754;28;20082;-51
2021/09/17 08:31:03;;;;;;;2.50;1.98;;;24.10;52.20;;;;;;4190924;28;20047;-49
2021/09/17 08:33:05;;;;;;;2.45;1.67;;;24.10;52.40;;;;;;4190612;28;20051;-49
2021/09/17 08:35:09;;;;;;;4.15;1.80;;;24.10;52.40;;;;;;4191855;28;20044;-52
2021/09/17 08:37:12;;;;;;;2.25;1.58;;;24.00;52.30;;;;;;4190017;28;20063;-55
2021/09/17 08:39:15;;;;;;;3.53;1.70;;;24.00;52.50;;;;;;4191591;28;20100;-53
2021/09/17 08:41:17;;;;;;;;;;;24.00;52.50;;;;;;4192247;28;20075;-51
2021/09/17 08:43:20;;;;;;;2.70;1.80;;;24.00;52.50;;;;;;4186746;28;20011;-50
2021/09/17 08:45:23;;;;;;;2.58;1.80;;;24.00;52.50;;;;;;4186295;28;20132;-52
2021/09/17 08:47:25;;;;;;;1.70;1.60;;;24.00;52.60;;;;;;4187639;28;20147;-52
2021/09/17 08:49:28;;;;;;;2.83;1.63;;;24.00;52.60;;;;;;4182811;28;20052;-49
2021/09/17 08:51:30;;;;;;;2.10;1.60;;;24.00;52.70;;;;;;4189337;28;20062;-49
2021/09/17 08:53:32;;;;;;;2.97;1.80;;;24.00;52.60;;;;;;4188889;28;20605;-49
2021/09/17 08:55:35;;;;;;;3.75;1.73;;;24.00;52.90;;;;;;4188277;28;20155;-47
2021/09/17 08:57:37;;;;;;;3.25;1.88;;;24.00;53.00;;;;;;4184446;28;20040;-47
2021/09/17 08:59:40;;;;;;;2.43;1.80;;;23.90;52.80;;;;;;4190829;28;20055;-50
2021/09/17 09:01:42;;;;;;;2.90;1.70;;;23.90;52.90;;;;;;4186363;28;20309;-50
2021/09/17 09:03:48;;;;;;;3.00;1.77;;;23.90;52.90;;;;;;4185519;28;20135;-51
2021/09/17 09:05:50;;;;;;;3.03;1.85;;;23.90;53.00;;;;;;4188954;28;20863;-56
2021/09/17 09:07:52;;;;;;;2.50;1.70;;;23.90;53.10;;;;;;4186220;28;20052;-57
2021/09/17 09:09:55;;;;;;;3.22;1.77;;;23.90;53.30;;;;;;4187756;28;20114;-56
2021/09/17 09:11:57;;;;;;;3.40;1.80;;;23.90;53.50;;;;;;4183538;28;20257;-52
2021/09/17 09:14:13;;;;;;;2.80;1.90;;;23.80;53.50;;;;;;4172765;28;20105;-50
2021/09/17 09:16:21;;;;;;;3.40;1.98;;;23.80;53.40;;;;;;4171762;28;20060;-53
2021/09/17 09:18:30;;;;;;;2.67;1.90;;;23.80;53.30;;;;;;4174198;28;20803;-49
2021/09/17 09:20:41;;;;;;;6.10;2.10;;;23.80;53.40;;;;;;4176904;28;20067;-58
2021/09/17 09:22:43;;;;;;;3.30;1.90;;;23.80;53.40;;;;;;4175886;28;20056;-51
2021/09/17 09:24:45;;;;;;;3.17;2.00;;;23.80;53.50;;;;;;4175086;28;20602;-54
2021/09/17 09:27:07;;;;;;;3.63;1.90;;;23.80;53.50;;;;;;4174181;28;20091;-57
2021/09/17 09:29:26;;;;;;;3.97;2.10;;;23.80;53.50;;;;;;4172988;28;20048;-57
2021/09/17 09:31:43;;;;;;;3.45;1.98;;;23.80;53.60;;;;;;4169629;28;20392;-55
2021/09/17 09:33:49;;;;;;;2.75;1.90;;;23.80;53.60;;;;;;4173377;28;20179;-55
2021/09/17 09:36:09;;;;;;;2.75;1.80;;;23.80;53.70;;;;;;4174422;28;20598;-54
2021/09/17 09:38:11;;;;;;;3.90;2.00;;;23.80;53.60;;;;;;4177388;28;20094;-55
2021/09/17 09:40:17;;;;;;;3.00;1.90;;;23.80;53.60;;;;;;4174767;28;20044;-54
2021/09/17 09:42:40;;;;;;;3.47;2.20;;;23.70;53.60;;;;;;4174957;28;20049;-55
2021/09/17 09:45:13;;;;;;;2.97;1.80;;;23.70;53.70;;;;;;4173197;28;20052;-53
2021/09/17 09:47:33;;;;;;;2.20;1.90;;;23.70;53.60;;;;;;4174888;28;20048;-53
2021/09/17 09:49:39;;;;;;;2.65;1.83;;;23.70;53.70;;;;;;4176707;28;20056;-57
2021/09/17 09:51:52;;;;;;;3.20;2.28;;;23.70;53.60;;;;;;4172738;28;20102;-57
2021/09/17 09:53:57;;;;;;;2.42;1.77;;;23.70;53.80;;;;;;4175824;28;20060;-52
2021/09/17 09:55:59;;;;;;;2.78;2.28;;;23.70;53.80;;;;;;4176345;28;20689;-57
2021/09/17 09:58:03;;;;;;;3.35;1.90;;;23.60;53.80;;;;;;4177428;28;20045;-53
2021/09/17 10:00:09;;;;;;;2.28;1.70;;;23.70;53.80;;;;;;4171767;28;20122;-59
2021/09/17 10:02:12;;;;;;;2.85;1.90;;;23.70;53.90;;;;;;4177359;28;20044;-60
2021/09/17 10:04:17;;;;;;;4.15;2.30;;;23.60;53.80;;;;;;4172528;28;20052;-59
2021/09/17 10:06:20;;;;;;;2.92;2.28;;;23.60;53.90;;;;;;4177441;28;20045;-58
2021/09/17 10:08:22;;;;;;;3.00;2.10;;;23.60;53.90;;;;;;4174821;28;20081;-53
2021/09/17 10:10:25;;;;;;;3.50;2.10;;;23.60;53.90;;;;;;4179173;28;20115;-57
2021/09/17 10:12:27;;;;;;;2.10;1.80;;;23.60;53.90;;;;;;4176846;28;20053;-60
2021/09/17 10:14:30;;;;;;;3.20;1.85;;;23.60;53.90;;;;;;4173532;28;20045;-54
2021/09/17 10:16:35;;;;;;;2.88;1.75;;;23.60;53.90;;;;;;4178050;28;20832;-57
2021/09/17 10:18:38;;;;;;;4.13;2.03;;;23.60;53.90;;;;;;4177699;28;20731;-58
2021/09/17 10:20:40;;;;;;;3.15;2.10;;;23.60;54.00;;;;;;4177242;28;20850;-56
2021/09/17 10:22:44;;;;;;;2.33;1.90;;;23.60;54.10;;;;;;4174441;28;20048;-58
2021/09/17 10:24:48;;;;;;;2.50;1.88;;;23.60;54.00;;;;;;4178285;28;20052;-54
2021/09/17 10:27:05;;;;;;;2.38;2.00;;;23.60;54.10;;;;;;4167312;28;20060;-59
2021/09/17 10:29:08;;;;;;;2.67;1.80;;;23.50;54.00;;;;;;4172875;28;20106;-54
2021/09/17 10:31:16;;;;;;;2.60;1.80;;;23.50;54.00;;;;;;4176469;28;20049;-55
2021/09/17 10:33:29;;;;;;;2.80;1.80;;;23.50;54.00;;;;;;4166404;28;20317;-56
2021/09/17 10:35:45;;;;;;;4.55;2.08;;;23.50;54.10;;;;;;4175339;28;20048;-54
2021/09/17 10:38:03;;;;;;;2.55;1.73;;;23.50;54.00;;;;;;4172505;28;20102;-58
2021/09/17 10:40:09;;;;;;;4.82;2.28;;;23.50;54.00;;;;;;4172490;28;20068;-56
2021/09/17 10:42:17;;;;;;;2.92;1.95;;;23.50;54.00;;;;;;4173086;28;20112;-55
2021/09/17 10:44:20;;;;;;;3.47;2.40;;;23.50;54.10;;;;;;4175192;28;20174;-59
2021/09/17 10:46:23;;;;;;;2.00;1.58;;;23.50;54.10;;;;;;4173105;28;20049;-59
2021/09/17 10:48:45;;;;;;;2.58;1.98;;;23.50;54.20;;;;;;4175329;28;20067;-52
2021/09/17 10:51:04;;;;;;;3.33;2.10;;;23.50;54.30;;;;;;4189702;28;20060;-58